sensor_id;sensor_type;location;lat;lon;timestamp;P1;durP1;ratioP1;P2;durP2;ratioP2
48651;SDS011;34442;52.362;-1.302;2022-12-29T00:00:07;4.32;;;1.98;;
48651;SDS011;34442;52.362;-1.302;2022-12-29T00:02:33;4.65;;;1.50;;
48651;SDS011;34442;52.362;-1.302;2022-12-29T00:04:58;5.53;;;1.50;;
48651;SDS011;34442;52.362;-1.302;2022-12-29T00:07:24;7.28;;;1.73;;
48651;SDS011;34442;52.362;-1.302;2022-12-29T00:09:49;8.50;;;2.50;;
48651;SDS011;34442;52.362;-1.302;2022-12-29T00:12:14;7.47;;;1.60;;
48651;SDS011;34442;52.362;-1.302;2022-12-29T00:14:40;3.95;;;1.20;;
48651;SDS011;34442;52.362;-1.302;2022-12-29T00:17:24;4.13;;;1.27;;
48651;SDS011;34442;52.362;-1.302;2022-12-29T00:19:49;5.13;;;1.27;;
48651;SDS011;34442;52.362;-1.302;2022-12-29T00:22:46;10.10;;;1.67;;
48651;SDS011;34442;52.362;-1.302;2022-12-29T00:25:30;5.97;;;1.80;;
48651;SDS011;34442;52.362;-1.302;2022-12-29T00:28:14;5.38;;;1.73;;
48651;SDS011;34442;52.362;-1.302;2022-12-29T00:30:58;5.53;;;1.80;;
48651;SDS011;34442;52.362;-1.302;2022-12-29T00:33:43;4.82;;;1.90;;
48651;SDS011;34442;52.362;-1.302;2022-12-29T00:36:28;8.35;;;2.03;;
48651;SDS011;34442;52.362;-1.302;2022-12-29T00:38:56;6.28;;;1.63;;
48651;SDS011;34442;52.362;-1.302;2022-12-29T00:41:43;7.88;;;1.83;;
48651;SDS011;34442;52.362;-1.302;2022-12-29T00:44:27;7.43;;;1.60;;
48651;SDS011;34442;52.362;-1.302;2022-12-29T00:46:52;8.27;;;1.77;;
48651;SDS011;34442;52.362;-1.302;2022-12-29T00:49:18;3.45;;;1.20;;
48651;SDS011;34442;52.362;-1.302;2022-12-29T00:52:05;4.15;;;1.35;;
48651;SDS011;34442;52.362;-1.302;2022-12-29T00:54:33;8.38;;;2.08;;
48651;SDS011;34442;52.362;-1.302;2022-12-29T00:56:59;6.63;;;1.67;;
48651;SDS011;34442;52.362;-1.302;2022-12-29T00:59:25;4.40;;;1.48;;
48651;SDS011;34442;52.362;-1.302;2022-12-29T01:01:51;6.13;;;1.70;;
48651;SDS011;34442;52.362;-1.302;2022-12-29T01:04:18;5.47;;;1.27;;
48651;SDS011;34442;52.362;-1.302;2022-12-29T01:06:45;6.82;;;1.65;;
48651;SDS011;34442;52.362;-1.302;2022-12-29T01:09:10;7.13;;;1.65;;
48651;SDS011;34442;52.362;-1.302;2022-12-29T01:11:55;6.10;;;2.05;;
48651;SDS011;34442;52.362;-1.302;2022-12-29T01:14:21;4.13;;;1.40;;
48651;SDS011;34442;52.362;-1.302;2022-12-29T01:16:47;8.70;;;2.00;;
48651;SDS011;34442;52.362;-1.302;2022-12-29T01:19:13;8.02;;;1.98;;
48651;SDS011;34442;52.362;-1.302;2022-12-29T01:21:39;2.65;;;1.30;;
48651;SDS011;34442;52.362;-1.302;2022-12-29T01:24:05;7.47;;;2.28;;
48651;SDS011;34442;52.362;-1.302;2022-12-29T01:26:30;7.75;;;2.03;;
48651;SDS011;34442;52.362;-1.302;2022-12-29T01:28:56;7.28;;;1.60;;
48651;SDS011;34442;52.362;-1.302;2022-12-29T01:31:21;9.02;;;2.03;;
48651;SDS011;34442;52.362;-1.302;2022-12-29T01:33:47;7.90;;;2.05;;
48651;SDS011;34442;52.362;-1.302;2022-12-29T01:36:13;8.23;;;1.77;;
48651;SDS011;34442;52.362;-1.302;2022-12-29T01:38:40;6.15;;;1.45;;
48651;SDS011;34442;52.362;-1.302;2022-12-29T01:41:07;6.60;;;1.45;;
48651;SDS011;34442;52.362;-1.302;2022-12-29T01:46:25;4.97;;;1.63;;
48651;SDS011;34442;52.362;-1.302;2022-12-29T01:49:33;6.82;;;1.60;;
48651;SDS011;34442;52.362;-1.302;2022-12-29T01:51:45;2.83;;;1.10;;
48651;SDS011;34442;52.362;-1.302;2022-12-29T01:54:17;6.85;;;1.45;;
48651;SDS011;34442;52.362;-1.302;2022-12-29T01:56:59;3.33;;;1.30;;
48651;SDS011;34442;52.362;-1.302;2022-12-29T01:59:27;3.72;;;1.00;;
48651;SDS011;34442;52.362;-1.302;2022-12-29T02:01:57;4.88;;;1.52;;
48651;SDS011;34442;52.362;-1.302;2022-12-29T02:04:24;3.85;;;1.30;;
48651;SDS011;34442;52.362;-1.302;2022-12-29T02:06:53;4.35;;;1.30;;
48651;SDS011;34442;52.362;-1.302;2022-12-29T02:09:22;4.13;;;1.00;;
48651;SDS011;34442;52.362;-1.302;2022-12-29T02:11:48;3.30;;;1.17;;
48651;SDS011;34442;52.362;-1.302;2022-12-29T02:14:14;5.53;;;1.65;;
48651;SDS011;34442;52.362;-1.302;2022-12-29T02:19:35;4.63;;;1.13;;
48651;SDS011;34442;52.362;-1.302;2022-12-29T02:33:10;3.42;;;1.00;;
48651;SDS011;34442;52.362;-1.302;2022-12-29T02:38:59;4.15;;;1.20;;
48651;SDS011;34442;52.362;-1.302;2022-12-29T02:44:27;2.42;;;1.15;;
48651;SDS011;34442;52.362;-1.302;2022-12-29T02:52:12;2.55;;;0.82;;
48651;SDS011;34442;52.362;-1.302;2022-12-29T02:54:42;4.35;;;1.23;;
48651;SDS011;34442;52.362;-1.302;2022-12-29T02:59:46;5.90;;;1.40;;
48651;SDS011;34442;52.362;-1.302;2022-12-29T03:13:43;4.80;;;1.23;;
48651;SDS011;34442;52.362;-1.302;2022-12-29T03:19:14;5.90;;;1.23;;
48651;SDS011;34442;52.362;-1.302;2022-12-29T03:24:27;1.88;;;1.00;;
48651;SDS011;34442;52.362;-1.302;2022-12-29T03:26:56;4.82;;;1.45;;
48651;SDS011;34442;52.362;-1.302;2022-12-29T03:29:26;2.83;;;0.95;;
48651;SDS011;34442;52.362;-1.302;2022-12-29T03:31:54;4.68;;;1.15;;
48651;SDS011;34442;52.362;-1.302;2022-12-29T03:34:21;4.22;;;1.30;;
48651;SDS011;34442;52.362;-1.302;2022-12-29T03:36:53;6.88;;;1.63;;
48651;SDS011;34442;52.362;-1.302;2022-12-29T03:39:23;5.25;;;1.33;;
48651;SDS011;34442;52.362;-1.302;2022-12-29T03:41:50;4.82;;;1.40;;
48651;SDS011;34442;52.362;-1.302;2022-12-29T03:44:30;4.18;;;1.25;;
48651;SDS011;34442;52.362;-1.302;2022-12-29T03:46:58;6.18;;;1.30;;
48651;SDS011;34442;52.362;-1.302;2022-12-29T03:49:23;3.80;;;1.15;;
48651;SDS011;34442;52.362;-1.302;2022-12-29T03:51:48;3.85;;;1.00;;
48651;SDS011;34442;52.362;-1.302;2022-12-29T03:54:14;5.18;;;1.77;;
48651;SDS011;34442;52.362;-1.302;2022-12-29T03:56:39;6.13;;;1.67;;
48651;SDS011;34442;52.362;-1.302;2022-12-29T03:59:04;5.45;;;1.30;;
48651;SDS011;34442;52.362;-1.302;2022-12-29T04:01:30;4.30;;;1.30;;
48651;SDS011;34442;52.362;-1.302;2022-12-29T04:03:55;3.20;;;1.13;;
48651;SDS011;34442;52.362;-1.302;2022-12-29T04:06:20;6.28;;;1.55;;
48651;SDS011;34442;52.362;-1.302;2022-12-29T04:08:46;4.32;;;1.30;;
48651;SDS011;34442;52.362;-1.302;2022-12-29T04:11:11;4.80;;;1.30;;
48651;SDS011;34442;52.362;-1.302;2022-12-29T04:13:36;4.25;;;1.38;;
48651;SDS011;34442;52.362;-1.302;2022-12-29T04:16:05;2.28;;;0.80;;
48651;SDS011;34442;52.362;-1.302;2022-12-29T04:18:31;2.03;;;1.13;;
48651;SDS011;34442;52.362;-1.302;2022-12-29T04:20:56;3.75;;;1.42;;
48651;SDS011;34442;52.362;-1.302;2022-12-29T04:23:25;3.20;;;1.00;;
48651;SDS011;34442;52.362;-1.302;2022-12-29T04:25:51;1.02;;;0.60;;
48651;SDS011;34442;52.362;-1.302;2022-12-29T04:28:16;2.45;;;0.70;;
48651;SDS011;34442;52.362;-1.302;2022-12-29T04:30:45;2.33;;;0.70;;
48651;SDS011;34442;52.362;-1.302;2022-12-29T04:33:11;1.50;;;0.88;;
48651;SDS011;34442;52.362;-1.302;2022-12-29T04:35:37;2.75;;;0.70;;
48651;SDS011;34442;52.362;-1.302;2022-12-29T04:38:02;1.25;;;0.50;;
48651;SDS011;34442;52.362;-1.302;2022-12-29T04:40:28;2.13;;;0.88;;
48651;SDS011;34442;52.362;-1.302;2022-12-29T04:42:53;0.88;;;0.60;;
48651;SDS011;34442;52.362;-1.302;2022-12-29T04:45:19;0.98;;;0.45;;
48651;SDS011;34442;52.362;-1.302;2022-12-29T04:47:44;0.40;;;0.40;;
48651;SDS011;34442;52.362;-1.302;2022-12-29T04:50:10;0.40;;;0.40;;
48651;SDS011;34442;52.362;-1.302;2022-12-29T04:52:35;0.40;;;0.40;;
48651;SDS011;34442;52.362;-1.302;2022-12-29T04:55:01;0.43;;;0.43;;
48651;SDS011;34442;52.362;-1.302;2022-12-29T04:57:27;0.50;;;0.50;;
48651;SDS011;34442;52.362;-1.302;2022-12-29T04:59:52;0.65;;;0.50;;
48651;SDS011;34442;52.362;-1.302;2022-12-29T05:02:18;0.75;;;0.50;;
48651;SDS011;34442;52.362;-1.302;2022-12-29T05:04:43;0.85;;;0.60;;
48651;SDS011;34442;52.362;-1.302;2022-12-29T05:07:09;2.45;;;0.82;;
48651;SDS011;34442;52.362;-1.302;2022-12-29T05:09:34;0.90;;;0.60;;
48651;SDS011;34442;52.362;-1.302;2022-12-29T05:12:00;0.65;;;0.50;;
48651;SDS011;34442;52.362;-1.302;2022-12-29T05:14:25;1.02;;;0.60;;
48651;SDS011;34442;52.362;-1.302;2022-12-29T05:16:51;0.75;;;0.50;;
48651;SDS011;34442;52.362;-1.302;2022-12-29T05:19:16;1.13;;;0.50;;
48651;SDS011;34442;52.362;-1.302;2022-12-29T05:21:42;0.50;;;0.50;;
48651;SDS011;34442;52.362;-1.302;2022-12-29T05:24:08;1.02;;;0.47;;
48651;SDS011;34442;52.362;-1.302;2022-12-29T05:26:33;0.40;;;0.40;;
48651;SDS011;34442;52.362;-1.302;2022-12-29T05:28:59;1.38;;;0.57;;
48651;SDS011;34442;52.362;-1.302;2022-12-29T05:31:25;0.85;;;0.50;;
48651;SDS011;34442;52.362;-1.302;2022-12-29T05:33:50;0.63;;;0.60;;
48651;SDS011;34442;52.362;-1.302;2022-12-29T05:36:16;0.77;;;0.55;;
48651;SDS011;34442;52.362;-1.302;2022-12-29T05:38:41;0.47;;;0.47;;
48651;SDS011;34442;52.362;-1.302;2022-12-29T05:41:06;1.20;;;0.50;;
48651;SDS011;34442;52.362;-1.302;2022-12-29T05:43:32;0.63;;;0.60;;
48651;SDS011;34442;52.362;-1.302;2022-12-29T05:45:57;0.40;;;0.40;;
48651;SDS011;34442;52.362;-1.302;2022-12-29T05:48:22;0.95;;;0.63;;
48651;SDS011;34442;52.362;-1.302;2022-12-29T05:50:48;0.40;;;0.40;;
48651;SDS011;34442;52.362;-1.302;2022-12-29T05:53:14;2.22;;;0.43;;
48651;SDS011;34442;52.362;-1.302;2022-12-29T05:55:40;0.63;;;0.50;;
48651;SDS011;34442;52.362;-1.302;2022-12-29T05:58:05;1.08;;;0.70;;
48651;SDS011;34442;52.362;-1.302;2022-12-29T06:00:30;0.50;;;0.50;;
48651;SDS011;34442;52.362;-1.302;2022-12-29T06:02:56;0.50;;;0.50;;
48651;SDS011;34442;52.362;-1.302;2022-12-29T06:05:21;0.40;;;0.40;;
48651;SDS011;34442;52.362;-1.302;2022-12-29T06:07:47;0.50;;;0.50;;
48651;SDS011;34442;52.362;-1.302;2022-12-29T06:10:12;0.63;;;0.60;;
48651;SDS011;34442;52.362;-1.302;2022-12-29T06:12:38;0.40;;;0.40;;
48651;SDS011;34442;52.362;-1.302;2022-12-29T06:15:03;1.00;;;0.57;;
48651;SDS011;34442;52.362;-1.302;2022-12-29T06:17:29;0.80;;;0.50;;
48651;SDS011;34442;52.362;-1.302;2022-12-29T06:19:54;0.50;;;0.50;;
48651;SDS011;34442;52.362;-1.302;2022-12-29T06:22:20;1.05;;;0.70;;
48651;SDS011;34442;52.362;-1.302;2022-12-29T06:24:45;0.68;;;0.63;;
48651;SDS011;34442;52.362;-1.302;2022-12-29T06:27:10;1.30;;;0.55;;
48651;SDS011;34442;52.362;-1.302;2022-12-29T06:29:36;0.50;;;0.50;;
48651;SDS011;34442;52.362;-1.302;2022-12-29T06:32:02;1.05;;;0.52;;
48651;SDS011;34442;52.362;-1.302;2022-12-29T06:34:31;1.00;;;0.82;;
48651;SDS011;34442;52.362;-1.302;2022-12-29T06:36:56;0.80;;;0.60;;
48651;SDS011;34442;52.362;-1.302;2022-12-29T06:39:22;1.02;;;0.70;;
48651;SDS011;34442;52.362;-1.302;2022-12-29T06:41:47;0.60;;;0.60;;
48651;SDS011;34442;52.362;-1.302;2022-12-29T06:44:13;0.82;;;0.60;;
48651;SDS011;34442;52.362;-1.302;2022-12-29T06:46:38;2.25;;;0.93;;
48651;SDS011;34442;52.362;-1.302;2022-12-29T06:49:03;1.27;;;0.70;;
48651;SDS011;34442;52.362;-1.302;2022-12-29T06:51:29;0.98;;;0.80;;
48651;SDS011;34442;52.362;-1.302;2022-12-29T06:53:54;0.52;;;0.52;;
48651;SDS011;34442;52.362;-1.302;2022-12-29T06:56:20;0.60;;;0.60;;
48651;SDS011;34442;52.362;-1.302;2022-12-29T06:58:45;1.88;;;0.75;;
48651;SDS011;34442;52.362;-1.302;2022-12-29T07:01:10;1.90;;;0.60;;
48651;SDS011;34442;52.362;-1.302;2022-12-29T07:03:36;0.73;;;0.60;;
48651;SDS011;34442;52.362;-1.302;2022-12-29T07:06:01;3.53;;;0.98;;
48651;SDS011;34442;52.362;-1.302;2022-12-29T07:08:26;1.50;;;0.50;;
48651;SDS011;34442;52.362;-1.302;2022-12-29T07:10:52;1.65;;;0.70;;
48651;SDS011;34442;52.362;-1.302;2022-12-29T07:13:17;3.35;;;0.88;;
48651;SDS011;34442;52.362;-1.302;2022-12-29T07:15:43;0.60;;;0.60;;
48651;SDS011;34442;52.362;-1.302;2022-12-29T07:18:08;1.02;;;0.60;;
48651;SDS011;34442;52.362;-1.302;2022-12-29T07:20:33;1.02;;;0.60;;
48651;SDS011;34442;52.362;-1.302;2022-12-29T07:22:59;0.70;;;0.50;;
48651;SDS011;34442;52.362;-1.302;2022-12-29T07:25:24;1.25;;;0.80;;
48651;SDS011;34442;52.362;-1.302;2022-12-29T07:27:49;1.55;;;0.80;;
48651;SDS011;34442;52.362;-1.302;2022-12-29T07:30:15;1.42;;;0.77;;
48651;SDS011;34442;52.362;-1.302;2022-12-29T07:32:41;0.90;;;0.70;;
48651;SDS011;34442;52.362;-1.302;2022-12-29T07:35:06;1.13;;;0.70;;
48651;SDS011;34442;52.362;-1.302;2022-12-29T07:37:33;0.50;;;0.50;;
48651;SDS011;34442;52.362;-1.302;2022-12-29T07:39:59;0.90;;;0.60;;
48651;SDS011;34442;52.362;-1.302;2022-12-29T07:42:25;2.65;;;0.80;;
48651;SDS011;34442;52.362;-1.302;2022-12-29T07:44:50;1.38;;;0.77;;
48651;SDS011;34442;52.362;-1.302;2022-12-29T07:47:16;0.50;;;0.50;;
48651;SDS011;34442;52.362;-1.302;2022-12-29T07:49:41;0.50;;;0.50;;
48651;SDS011;34442;52.362;-1.302;2022-12-29T07:52:06;0.88;;;0.60;;
48651;SDS011;34442;52.362;-1.302;2022-12-29T07:54:32;0.40;;;0.40;;
48651;SDS011;34442;52.362;-1.302;2022-12-29T07:56:57;1.70;;;0.50;;
48651;SDS011;34442;52.362;-1.302;2022-12-29T07:59:25;2.13;;;0.70;;
48651;SDS011;34442;52.362;-1.302;2022-12-29T08:01:50;0.50;;;0.50;;
48651;SDS011;34442;52.362;-1.302;2022-12-29T08:04:15;0.98;;;0.50;;
48651;SDS011;34442;52.362;-1.302;2022-12-29T08:06:41;0.60;;;0.60;;
48651;SDS011;34442;52.362;-1.302;2022-12-29T08:09:06;0.60;;;0.50;;
48651;SDS011;34442;52.362;-1.302;2022-12-29T08:11:32;0.50;;;0.50;;
48651;SDS011;34442;52.362;-1.302;2022-12-29T08:13:58;0.50;;;0.50;;
48651;SDS011;34442;52.362;-1.302;2022-12-29T08:16:23;0.45;;;0.45;;
48651;SDS011;34442;52.362;-1.302;2022-12-29T08:18:49;0.45;;;0.40;;
48651;SDS011;34442;52.362;-1.302;2022-12-29T08:21:14;0.98;;;0.60;;
48651;SDS011;34442;52.362;-1.302;2022-12-29T08:23:39;0.50;;;0.50;;
48651;SDS011;34442;52.362;-1.302;2022-12-29T08:26:05;0.95;;;0.55;;
48651;SDS011;34442;52.362;-1.302;2022-12-29T08:28:31;0.45;;;0.45;;
48651;SDS011;34442;52.362;-1.302;2022-12-29T08:30:58;0.55;;;0.50;;
48651;SDS011;34442;52.362;-1.302;2022-12-29T08:33:25;1.20;;;0.50;;
48651;SDS011;34442;52.362;-1.302;2022-12-29T08:35:50;5.65;;;1.30;;
48651;SDS011;34442;52.362;-1.302;2022-12-29T08:38:16;0.65;;;0.60;;
48651;SDS011;34442;52.362;-1.302;2022-12-29T08:40:41;1.65;;;0.70;;
48651;SDS011;34442;52.362;-1.302;2022-12-29T08:43:06;0.90;;;0.63;;
48651;SDS011;34442;52.362;-1.302;2022-12-29T08:45:32;3.03;;;0.60;;
48651;SDS011;34442;52.362;-1.302;2022-12-29T08:47:57;0.73;;;0.60;;
48651;SDS011;34442;52.362;-1.302;2022-12-29T08:50:23;1.75;;;0.80;;
48651;SDS011;34442;52.362;-1.302;2022-12-29T08:52:48;1.35;;;0.60;;
48651;SDS011;34442;52.362;-1.302;2022-12-29T08:55:13;1.13;;;0.70;;
48651;SDS011;34442;52.362;-1.302;2022-12-29T08:57:39;1.92;;;0.75;;
48651;SDS011;34442;52.362;-1.302;2022-12-29T09:00:04;0.68;;;0.68;;
48651;SDS011;34442;52.362;-1.302;2022-12-29T09:02:31;0.60;;;0.60;;
48651;SDS011;34442;52.362;-1.302;2022-12-29T09:04:56;0.98;;;0.80;;
48651;SDS011;34442;52.362;-1.302;2022-12-29T09:07:25;3.45;;;0.80;;
48651;SDS011;34442;52.362;-1.302;2022-12-29T09:09:51;1.27;;;0.68;;
48651;SDS011;34442;52.362;-1.302;2022-12-29T09:12:16;0.73;;;0.70;;
48651;SDS011;34442;52.362;-1.302;2022-12-29T09:14:42;1.30;;;0.52;;
48651;SDS011;34442;52.362;-1.302;2022-12-29T09:17:09;0.57;;;0.50;;
48651;SDS011;34442;52.362;-1.302;2022-12-29T09:19:53;1.27;;;0.73;;
48651;SDS011;34442;52.362;-1.302;2022-12-29T09:22:19;1.20;;;0.70;;
48651;SDS011;34442;52.362;-1.302;2022-12-29T09:24:44;0.60;;;0.60;;
48651;SDS011;34442;52.362;-1.302;2022-12-29T09:27:09;1.20;;;0.85;;
48651;SDS011;34442;52.362;-1.302;2022-12-29T09:29:35;1.45;;;0.60;;
48651;SDS011;34442;52.362;-1.302;2022-12-29T09:32:00;1.25;;;0.60;;
48651;SDS011;34442;52.362;-1.302;2022-12-29T09:34:26;1.08;;;0.63;;
48651;SDS011;34442;52.362;-1.302;2022-12-29T09:36:51;4.40;;;0.95;;
48651;SDS011;34442;52.362;-1.302;2022-12-29T09:39:16;2.03;;;0.80;;
48651;SDS011;34442;52.362;-1.302;2022-12-29T09:44:27;1.73;;;0.80;;
48651;SDS011;34442;52.362;-1.302;2022-12-29T09:47:04;0.95;;;0.60;;
48651;SDS011;34442;52.362;-1.302;2022-12-29T09:49:43;2.15;;;0.82;;
48651;SDS011;34442;52.362;-1.302;2022-12-29T09:52:35;1.30;;;0.60;;
48651;SDS011;34442;52.362;-1.302;2022-12-29T09:55:09;1.65;;;0.73;;
48651;SDS011;34442;52.362;-1.302;2022-12-29T09:57:39;3.53;;;0.80;;
48651;SDS011;34442;52.362;-1.302;2022-12-29T10:00:11;2.00;;;0.80;;
48651;SDS011;34442;52.362;-1.302;2022-12-29T10:02:41;2.03;;;0.77;;
48651;SDS011;34442;52.362;-1.302;2022-12-29T10:05:13;3.22;;;0.73;;
48651;SDS011;34442;52.362;-1.302;2022-12-29T10:07:52;3.03;;;0.82;;
48651;SDS011;34442;52.362;-1.302;2022-12-29T10:10:30;4.03;;;1.00;;
48651;SDS011;34442;52.362;-1.302;2022-12-29T10:16:01;1.95;;;0.55;;
48651;SDS011;34442;52.362;-1.302;2022-12-29T10:21:13;2.05;;;0.50;;
48651;SDS011;34442;52.362;-1.302;2022-12-29T10:23:51;1.20;;;0.50;;
48651;SDS011;34442;52.362;-1.302;2022-12-29T10:26:20;0.65;;;0.60;;
48651;SDS011;34442;52.362;-1.302;2022-12-29T10:29:03;1.10;;;0.75;;
48651;SDS011;34442;52.362;-1.302;2022-12-29T10:31:44;1.25;;;0.63;;
48651;SDS011;34442;52.362;-1.302;2022-12-29T10:34:36;2.28;;;0.70;;
48651;SDS011;34442;52.362;-1.302;2022-12-29T10:39:41;0.98;;;0.57;;
48651;SDS011;34442;52.362;-1.302;2022-12-29T10:42:14;2.85;;;0.90;;
48651;SDS011;34442;52.362;-1.302;2022-12-29T10:44:46;1.45;;;0.80;;
48651;SDS011;34442;52.362;-1.302;2022-12-29T10:47:14;2.63;;;0.63;;
48651;SDS011;34442;52.362;-1.302;2022-12-29T10:49:45;1.42;;;0.55;;
48651;SDS011;34442;52.362;-1.302;2022-12-29T10:52:12;1.67;;;0.50;;
48651;SDS011;34442;52.362;-1.302;2022-12-29T10:54:49;3.30;;;0.63;;
48651;SDS011;34442;52.362;-1.302;2022-12-29T10:59:57;0.40;;;0.40;;
48651;SDS011;34442;52.362;-1.302;2022-12-29T11:07:57;1.55;;;0.70;;
48651;SDS011;34442;52.362;-1.302;2022-12-29T11:10:38;3.80;;;0.90;;
48651;SDS011;34442;52.362;-1.302;2022-12-29T11:13:18;0.57;;;0.57;;
48651;SDS011;34442;52.362;-1.302;2022-12-29T11:15:51;3.53;;;0.80;;
48651;SDS011;34442;52.362;-1.302;2022-12-29T11:18:37;2.25;;;0.80;;
48651;SDS011;34442;52.362;-1.302;2022-12-29T11:21:24;2.72;;;0.80;;
48651;SDS011;34442;52.362;-1.302;2022-12-29T11:23:57;2.05;;;0.75;;
48651;SDS011;34442;52.362;-1.302;2022-12-29T11:26:25;2.67;;;0.90;;
48651;SDS011;34442;52.362;-1.302;2022-12-29T11:31:42;2.08;;;1.10;;
48651;SDS011;34442;52.362;-1.302;2022-12-29T11:34:19;2.47;;;0.60;;
48651;SDS011;34442;52.362;-1.302;2022-12-29T11:36:50;2.00;;;0.75;;
48651;SDS011;34442;52.362;-1.302;2022-12-29T11:39:24;0.93;;;0.50;;
48651;SDS011;34442;52.362;-1.302;2022-12-29T11:41:54;1.55;;;0.80;;
48651;SDS011;34442;52.362;-1.302;2022-12-29T11:44:20;2.83;;;0.90;;
48651;SDS011;34442;52.362;-1.302;2022-12-29T11:46:46;1.67;;;0.90;;
48651;SDS011;34442;52.362;-1.302;2022-12-29T11:49:18;3.45;;;0.80;;
48651;SDS011;34442;52.362;-1.302;2022-12-29T11:51:47;2.67;;;0.70;;
48651;SDS011;34442;52.362;-1.302;2022-12-29T11:54:36;3.92;;;1.13;;
48651;SDS011;34442;52.362;-1.302;2022-12-29T11:57:21;3.33;;;1.20;;
48651;SDS011;34442;52.362;-1.302;2022-12-29T11:59:55;2.22;;;1.73;;
48651;SDS011;34442;52.362;-1.302;2022-12-29T12:09:08;5.40;;;1.30;;
48651;SDS011;34442;52.362;-1.302;2022-12-29T12:13:39;3.38;;;1.10;;
48651;SDS011;34442;52.362;-1.302;2022-12-29T12:16:18;4.43;;;0.80;;
48651;SDS011;34442;52.362;-1.302;2022-12-29T12:18:49;5.10;;;1.20;;
48651;SDS011;34442;52.362;-1.302;2022-12-29T12:23:56;5.30;;;1.40;;
48651;SDS011;34442;52.362;-1.302;2022-12-29T12:27:00;3.58;;;1.15;;
48651;SDS011;34442;52.362;-1.302;2022-12-29T12:29:43;2.55;;;0.80;;
48651;SDS011;34442;52.362;-1.302;2022-12-29T12:32:23;3.22;;;0.90;;
48651;SDS011;34442;52.362;-1.302;2022-12-29T12:34:54;6.95;;;1.75;;
48651;SDS011;34442;52.362;-1.302;2022-12-29T12:45:27;1.33;;;0.80;;
48651;SDS011;34442;52.362;-1.302;2022-12-29T13:08:08;1.85;;;1.05;;
48651;SDS011;34442;52.362;-1.302;2022-12-29T13:18:14;6.45;;;1.38;;
48651;SDS011;34442;52.362;-1.302;2022-12-29T13:21:10;3.00;;;1.40;;
48651;SDS011;34442;52.362;-1.302;2022-12-29T13:26:22;4.15;;;1.70;;
48651;SDS011;34442;52.362;-1.302;2022-12-29T13:34:38;1.52;;;0.80;;
48651;SDS011;34442;52.362;-1.302;2022-12-29T13:37:15;2.95;;;0.98;;
48651;SDS011;34442;52.362;-1.302;2022-12-29T13:39:49;2.47;;;0.82;;
48651;SDS011;34442;52.362;-1.302;2022-12-29T13:42:20;3.47;;;0.85;;
48651;SDS011;34442;52.362;-1.302;2022-12-29T13:45:00;2.67;;;0.73;;
48651;SDS011;34442;52.362;-1.302;2022-12-29T13:47:38;2.25;;;0.80;;
48651;SDS011;34442;52.362;-1.302;2022-12-29T13:50:17;2.75;;;0.90;;
48651;SDS011;34442;52.362;-1.302;2022-12-29T14:01:30;0.80;;;0.68;;
48651;SDS011;34442;52.362;-1.302;2022-12-29T14:04:02;2.42;;;0.85;;
48651;SDS011;34442;52.362;-1.302;2022-12-29T14:06:34;1.73;;;0.85;;
48651;SDS011;34442;52.362;-1.302;2022-12-29T14:09:05;2.92;;;0.98;;
48651;SDS011;34442;52.362;-1.302;2022-12-29T14:11:49;4.40;;;0.90;;
48651;SDS011;34442;52.362;-1.302;2022-12-29T14:14:19;1.50;;;0.90;;
48651;SDS011;34442;52.362;-1.302;2022-12-29T14:16:48;1.67;;;0.90;;
48651;SDS011;34442;52.362;-1.302;2022-12-29T14:21:58;2.15;;;1.10;;
48651;SDS011;34442;52.362;-1.302;2022-12-29T14:32:37;2.22;;;0.80;;
48651;SDS011;34442;52.362;-1.302;2022-12-29T14:34:56;4.63;;;1.05;;
48651;SDS011;34442;52.362;-1.302;2022-12-29T14:37:27;1.80;;;0.90;;
48651;SDS011;34442;52.362;-1.302;2022-12-29T14:42:49;4.25;;;1.30;;
48651;SDS011;34442;52.362;-1.302;2022-12-29T14:47:48;2.97;;;0.90;;
48651;SDS011;34442;52.362;-1.302;2022-12-29T14:53:00;2.77;;;1.00;;
48651;SDS011;34442;52.362;-1.302;2022-12-29T15:00:57;2.58;;;0.93;;
48651;SDS011;34442;52.362;-1.302;2022-12-29T15:06:13;1.58;;;0.77;;
48651;SDS011;34442;52.362;-1.302;2022-12-29T15:08:46;2.33;;;1.02;;
48651;SDS011;34442;52.362;-1.302;2022-12-29T15:11:13;2.88;;;1.20;;
48651;SDS011;34442;52.362;-1.302;2022-12-29T15:13:42;3.70;;;0.90;;
48651;SDS011;34442;52.362;-1.302;2022-12-29T15:18:53;4.20;;;1.30;;
48651;SDS011;34442;52.362;-1.302;2022-12-29T15:21:29;1.30;;;0.70;;
48651;SDS011;34442;52.362;-1.302;2022-12-29T15:23:56;1.60;;;0.80;;
48651;SDS011;34442;52.362;-1.302;2022-12-29T15:26:22;3.42;;;1.00;;
48651;SDS011;34442;52.362;-1.302;2022-12-29T15:28:49;1.60;;;0.90;;
48651;SDS011;34442;52.362;-1.302;2022-12-29T15:31:23;1.80;;;0.82;;
48651;SDS011;34442;52.362;-1.302;2022-12-29T15:33:50;3.65;;;1.10;;
48651;SDS011;34442;52.362;-1.302;2022-12-29T15:36:21;3.47;;;0.90;;
48651;SDS011;34442;52.362;-1.302;2022-12-29T15:38:52;2.95;;;1.30;;
48651;SDS011;34442;52.362;-1.302;2022-12-29T15:44:27;2.60;;;1.00;;
48651;SDS011;34442;52.362;-1.302;2022-12-29T15:46:57;2.55;;;1.00;;
48651;SDS011;34442;52.362;-1.302;2022-12-29T15:49:26;2.78;;;1.00;;
48651;SDS011;34442;52.362;-1.302;2022-12-29T15:51:52;4.88;;;2.15;;
48651;SDS011;34442;52.362;-1.302;2022-12-29T15:54:21;3.53;;;1.27;;
48651;SDS011;34442;52.362;-1.302;2022-12-29T15:56:48;3.13;;;1.17;;
48651;SDS011;34442;52.362;-1.302;2022-12-29T15:59:25;4.03;;;1.30;;
48651;SDS011;34442;52.362;-1.302;2022-12-29T16:01:54;3.60;;;1.10;;
48651;SDS011;34442;52.362;-1.302;2022-12-29T16:04:21;3.40;;;0.90;;
48651;SDS011;34442;52.362;-1.302;2022-12-29T16:06:54;1.67;;;0.82;;
48651;SDS011;34442;52.362;-1.302;2022-12-29T16:09:55;1.58;;;0.73;;
48651;SDS011;34442;52.362;-1.302;2022-12-29T16:12:20;1.60;;;0.85;;
48651;SDS011;34442;52.362;-1.302;2022-12-29T16:14:57;3.40;;;0.80;;
48651;SDS011;34442;52.362;-1.302;2022-12-29T16:17:27;1.75;;;0.80;;
48651;SDS011;34442;52.362;-1.302;2022-12-29T16:19:56;3.67;;;0.80;;
48651;SDS011;34442;52.362;-1.302;2022-12-29T16:22:42;2.35;;;0.90;;
48651;SDS011;34442;52.362;-1.302;2022-12-29T16:25:21;3.33;;;0.85;;
48651;SDS011;34442;52.362;-1.302;2022-12-29T16:27:49;3.85;;;1.13;;
48651;SDS011;34442;52.362;-1.302;2022-12-29T16:32:47;0.93;;;0.60;;
48651;SDS011;34442;52.362;-1.302;2022-12-29T16:38:12;1.75;;;0.70;;
48651;SDS011;34442;52.362;-1.302;2022-12-29T16:40:52;1.60;;;0.73;;
48651;SDS011;34442;52.362;-1.302;2022-12-29T16:43:31;1.58;;;1.00;;
48651;SDS011;34442;52.362;-1.302;2022-12-29T16:48:25;2.55;;;0.90;;
48651;SDS011;34442;52.362;-1.302;2022-12-29T16:50:54;4.00;;;1.13;;
48651;SDS011;34442;52.362;-1.302;2022-12-29T16:53:32;5.32;;;1.38;;
48651;SDS011;34442;52.362;-1.302;2022-12-29T16:58:33;2.92;;;1.10;;
48651;SDS011;34442;52.362;-1.302;2022-12-29T17:01:00;3.83;;;1.20;;
48651;SDS011;34442;52.362;-1.302;2022-12-29T17:03:37;1.05;;;0.85;;
48651;SDS011;34442;52.362;-1.302;2022-12-29T17:06:05;4.40;;;1.20;;
48651;SDS011;34442;52.362;-1.302;2022-12-29T17:08:40;2.35;;;0.80;;
48651;SDS011;34442;52.362;-1.302;2022-12-29T17:11:19;1.95;;;1.00;;
48651;SDS011;34442;52.362;-1.302;2022-12-29T17:14:03;3.28;;;1.10;;
48651;SDS011;34442;52.362;-1.302;2022-12-29T17:16:29;4.38;;;1.23;;
48651;SDS011;34442;52.362;-1.302;2022-12-29T17:18:54;3.75;;;1.20;;
48651;SDS011;34442;52.362;-1.302;2022-12-29T17:21:20;1.15;;;0.88;;
48651;SDS011;34442;52.362;-1.302;2022-12-29T17:23:45;2.47;;;1.17;;
48651;SDS011;34442;52.362;-1.302;2022-12-29T17:26:10;2.35;;;1.00;;
48651;SDS011;34442;52.362;-1.302;2022-12-29T17:28:37;2.75;;;1.05;;
48651;SDS011;34442;52.362;-1.302;2022-12-29T17:31:03;4.25;;;1.02;;
48651;SDS011;34442;52.362;-1.302;2022-12-29T17:33:33;1.45;;;0.77;;
48651;SDS011;34442;52.362;-1.302;2022-12-29T17:36:01;1.73;;;0.77;;
48651;SDS011;34442;52.362;-1.302;2022-12-29T17:38:27;0.85;;;0.70;;
48651;SDS011;34442;52.362;-1.302;2022-12-29T17:40:55;0.98;;;0.70;;
48651;SDS011;34442;52.362;-1.302;2022-12-29T17:43:21;1.65;;;0.80;;